Time;durP1;ratioP1;P1;durP2;ratioP2;P2;SDS_P1;SDS_P2;PMS_P1;PMS_P2;Temp;Humidity;BMP_temperature;BMP_pressure;BME280_temperature;BME280_humidity;BME280_pressure;Samples;Min_cycle;Max_cycle;Signal;HPM_P1;HPM_P2
2021/12/08 00:21:39;;;;;;;6.45;1.08;;;4.30;99.90;;;;;;5858405;23;20097;-95
2021/12/08 00:24:07;;;;;;;6.22;1.08;;;4.20;99.90;;;;;;4895006;29;20029;-93
2021/12/08 00:26:33;;;;;;;3.78;1.00;;;4.30;99.90;;;;;;4904766;29;20017;-93
2021/12/08 00:29:02;;;;;;;5.40;0.93;;;4.20;99.90;;;;;;4903211;29;20013;-93
2021/12/08 00:31:30;;;;;;;4.68;1.13;;;4.20;99.90;;;;;;4902767;29;20029;-94
2021/12/08 00:33:59;;;;;;;6.15;1.02;;;4.20;99.90;;;;;;4899667;29;20021;-91
2021/12/08 00:53:39;;;;;;;9.00;1.98;;;4.30;99.90;;;;;;5683690;23;20110;-93
2021/12/08 00:56:08;;;;;;;5.28;1.38;;;4.30;99.90;;;;;;4920878;29;20020;-94
2021/12/08 00:58:33;;;;;;;2.15;1.13;;;4.40;99.90;;;;;;4935128;29;20049;-92
2021/12/08 01:00:59;;;;;;;3.90;1.05;;;4.40;99.90;;;;;;4937033;29;20069;-94
2021/12/08 01:03:25;;;;;;;3.90;1.10;;;4.40;99.90;;;;;;4934799;29;20024;-94
2021/12/08 01:05:54;;;;;;;6.63;1.88;;;4.50;99.90;;;;;;4922001;29;20031;-93
2021/12/08 01:08:23;;;;;;;6.63;1.02;;;4.50;99.90;;;;;;4909155;29;20113;-94
2021/12/08 01:10:52;;;;;;;4.78;0.98;;;4.40;99.90;;;;;;4910442;29;20028;-94
2021/12/08 01:13:20;;;;;;;5.78;0.90;;;4.40;99.90;;;;;;4910510;29;20036;-95
2021/12/08 01:15:50;;;;;;;2.13;0.77;;;4.50;99.90;;;;;;4910004;29;20253;-94
2021/12/08 01:18:17;;;;;;;3.28;0.82;;;4.50;99.90;;;;;;4910894;29;20486;-94
2021/12/08 01:20:48;;;;;;;5.90;1.25;;;4.50;99.90;;;;;;4910387;29;20032;-94
2021/12/08 01:23:15;;;;;;;8.15;1.27;;;4.50;99.90;;;;;;4910033;29;20095;-93
2021/12/08 01:25:41;;;;;;;5.03;0.88;;;4.50;99.90;;;;;;4909592;29;20032;-93
2021/12/08 01:28:10;;;;;;;2.25;0.45;;;4.50;99.90;;;;;;4911028;29;20024;-96
2021/12/08 01:30:36;;;;;;;5.35;1.27;;;4.50;99.90;;;;;;4917505;29;20047;-91
2021/12/08 01:33:03;;;;;;;2.13;0.85;;;4.60;99.90;;;;;;4918205;29;20171;-94
2021/12/08 01:35:32;;;;;;;5.38;1.45;;;4.60;99.90;;;;;;4912167;29;20036;-93
2021/12/08 01:37:58;;;;;;;5.30;0.57;;;4.60;99.90;;;;;;4913444;29;20032;-96
2021/12/08 01:40:24;;;;;;;6.38;0.93;;;4.60;99.90;;;;;;4918396;29;20103;-92
2021/12/08 01:42:53;;;;;;;6.07;0.80;;;4.60;99.90;;;;;;4920469;29;20044;-89
2021/12/08 01:48:11;;;;;;;4.38;1.27;;;4.60;99.90;;;;;;4939737;29;20046;-95
2021/12/08 01:50:41;;;;;;;8.90;1.20;;;4.60;99.90;;;;;;4916277;29;20024;-94
2021/12/08 01:53:08;;;;;;;3.47;0.80;;;4.50;99.90;;;;;;4910946;29;20032;-94
2021/12/08 01:55:36;;;;;;;16.98;2.42;;;4.50;99.90;;;;;;4895378;29;20084;-95
2021/12/08 01:58:01;;;;;;;3.67;1.33;;;4.50;99.90;;;;;;4897344;29;20029;-95
2021/12/08 02:00:31;;;;;;;7.47;1.00;;;4.40;99.90;;;;;;4895389;29;20037;-93
2021/12/08 02:02:57;;;;;;;5.77;1.03;;;4.40;99.90;;;;;;4916362;29;20028;-94
2021/12/08 02:05:23;;;;;;;3.38;0.47;;;4.30;99.90;;;;;;4903968;29;20348;-94
2021/12/08 02:07:50;;;;;;;2.72;0.73;;;4.30;99.90;;;;;;4903032;29;20021;-94
2021/12/08 02:10:16;;;;;;;6.65;0.93;;;4.20;99.90;;;;;;4903513;29;20036;-94
2021/12/08 02:12:42;;;;;;;7.28;1.10;;;4.20;99.90;;;;;;4899292;29;20033;-94
2021/12/08 02:15:12;;;;;;;3.05;1.08;;;4.10;99.90;;;;;;4901394;29;20151;-93
2021/12/08 02:17:39;;;;;;;4.70;0.87;;;4.10;99.90;;;;;;4901407;29;20051;-92
2021/12/08 02:20:08;;;;;;;6.32;1.45;;;4.10;99.90;;;;;;4903439;29;20029;-93
2021/12/08 02:22:33;;;;;;;7.40;0.93;;;4.10;99.90;;;;;;4904203;29;20116;-95
2021/12/08 02:24:59;;;;;;;7.93;0.93;;;4.10;99.90;;;;;;4904042;29;20017;-95
2021/12/08 02:27:25;;;;;;;5.10;0.75;;;4.10;99.90;;;;;;4900023;29;20020;-94
2021/12/08 02:29:58;;;;;;;4.35;0.70;;;4.10;99.90;;;;;;4896955;29;20037;-94
2021/12/08 02:49:03;;;;;;;1.00;0.10;;;4.00;99.90;;;;;;4883663;29;20048;-93
2021/12/08 02:51:29;;;;;;;2.10;0.30;;;4.00;99.90;;;;;;4885653;29;20105;-91
2021/12/08 02:53:58;;;;;;;1.75;0.20;;;3.90;99.90;;;;;;4884998;29;20045;-91
2021/12/08 02:56:24;;;;;;;0.98;0.22;;;3.90;99.90;;;;;;4884510;29;20077;-94
2021/12/08 02:58:49;;;;;;;0.45;0.10;;;3.90;99.90;;;;;;4884683;29;20037;-93
2021/12/08 03:01:15;;;;;;;1.02;0.20;;;3.90;99.90;;;;;;4882917;29;20068;-94
2021/12/08 03:03:42;;;;;;;0.38;0.20;;;3.90;99.90;;;;;;4883053;29;20026;-94
2021/12/08 03:06:08;;;;;;;0.20;0.13;;;3.80;99.90;;;;;;4884447;29;20053;-95
2021/12/08 03:08:34;;;;;;;1.73;0.20;;;3.80;99.90;;;;;;4885120;29;20029;-92
2021/12/08 03:11:00;;;;;;;0.55;0.40;;;3.80;99.90;;;;;;4883726;29;20101;-94
2021/12/08 03:13:33;;;;;;;0.55;0.15;;;3.80;99.90;;;;;;4889876;29;20031;-91
2021/12/08 03:16:01;;;;;;;0.10;0.10;;;3.70;99.90;;;;;;4903814;29;20041;-94
2021/12/08 03:18:33;;;;;;;1.65;0.20;;;3.70;99.90;;;;;;4904103;29;20020;-94
2021/12/08 03:21:00;;;;;;;0.10;0.10;;;3.70;99.90;;;;;;4905183;29;20028;-94
2021/12/08 03:23:32;;;;;;;0.45;0.20;;;3.60;99.90;;;;;;4920071;29;20033;-95
2021/12/08 03:26:01;;;;;;;0.35;0.10;;;3.50;99.90;;;;;;4917462;29;20025;-93
2021/12/08 03:28:31;;;;;;;0.20;0.20;;;3.50;99.90;;;;;;4900268;29;20060;-95
2021/12/08 03:31:15;;;;;;;1.35;0.17;;;3.40;99.90;;;;;;4899641;29;20084;-93
2021/12/08 03:33:42;;;;;;;0.10;0.10;;;3.30;99.90;;;;;;4896481;29;20036;-96
2021/12/08 03:36:11;;;;;;;0.22;0.20;;;3.30;99.90;;;;;;4900043;29;20089;-94
2021/12/08 03:38:39;;;;;;;1.25;0.68;;;3.20;99.90;;;;;;4898499;29;20088;-96
2021/12/08 03:41:07;;;;;;;2.38;0.52;;;3.30;99.90;;;;;;4891913;29;20024;-92
2021/12/08 03:43:33;;;;;;;0.10;0.10;;;3.20;99.90;;;;;;4876038;29;20032;-94
2021/12/08 03:46:00;;;;;;;0.38;0.17;;;3.20;99.90;;;;;;4893009;29;20033;-94
2021/12/08 03:48:32;;;;;;;0.30;0.20;;;3.20;99.90;;;;;;4893762;29;20036;-93
2021/12/08 03:50:58;;;;;;;0.63;0.40;;;3.30;99.90;;;;;;4892021;29;20096;-93
2021/12/08 03:53:25;;;;;;;0.80;0.32;;;3.30;99.90;;;;;;4887353;29;20132;-93
2021/12/08 03:55:53;;;;;;;5.15;0.80;;;3.30;99.90;;;;;;4887341;29;20131;-93
2021/12/08 03:58:21;;;;;;;4.47;0.38;;;3.30;99.90;;;;;;4887737;29;20032;-96
2021/12/08 04:00:49;;;;;;;1.60;0.57;;;3.40;99.90;;;;;;4893092;29;20040;-93
2021/12/08 04:03:17;;;;;;;0.75;0.57;;;3.40;99.90;;;;;;4893567;29;20028;-94
2021/12/08 04:05:52;;;;;;;2.92;0.68;;;3.50;99.90;;;;;;4892422;29;20021;-93
2021/12/08 04:08:28;;;;;;;3.35;0.47;;;3.50;99.90;;;;;;4896726;29;20033;-95
2021/12/08 04:10:54;;;;;;;3.55;0.73;;;3.50;99.90;;;;;;4898698;29;20104;-95
2021/12/08 04:13:30;;;;;;;2.55;0.38;;;3.60;99.90;;;;;;4902287;29;20043;-94
2021/12/08 04:15:57;;;;;;;4.38;0.70;;;3.60;99.90;;;;;;4901340;29;20037;-94
2021/12/08 04:18:23;;;;;;;3.17;0.55;;;3.70;99.90;;;;;;4894158;29;20061;-94
2021/12/08 04:20:54;;;;;;;3.15;0.60;;;3.70;99.90;;;;;;4910167;29;20099;-93
2021/12/08 04:23:24;;;;;;;;;;;3.80;99.90;;;;;;4898375;29;20063;-94
2021/12/08 04:25:54;;;;;;;1.63;0.73;;;3.90;99.90;;;;;;4895234;29;19908;-93
2021/12/08 04:28:23;;;;;;;2.58;0.57;;;3.90;99.90;;;;;;4897901;29;20036;-95
2021/12/08 04:30:57;;;;;;;0.82;0.32;;;3.90;99.90;;;;;;4892758;29;20053;-93
2021/12/08 04:33:24;;;;;;;1.65;0.82;;;4.00;99.90;;;;;;4894505;29;20398;-94
2021/12/08 04:35:53;;;;;;;2.97;0.68;;;4.00;99.90;;;;;;4893574;29;20065;-94
2021/12/08 04:38:26;;;;;;;1.85;0.75;;;4.00;99.90;;;;;;4892199;29;20052;-93
2021/12/08 04:41:07;;;;;;;3.40;0.35;;;4.10;99.90;;;;;;4893934;29;20039;-94
2021/12/08 04:43:48;;;;;;;3.33;1.00;;;4.10;99.90;;;;;;4896346;29;20025;-93
2021/12/08 04:46:34;;;;;;;4.35;0.65;;;4.10;99.90;;;;;;4893101;29;20099;-94
2021/12/08 05:06:36;;;;;;;3.75;0.85;;;4.20;99.90;;;;;;4909545;29;20085;-95
2021/12/08 05:09:10;;;;;;;4.82;1.50;;;4.30;99.90;;;;;;4899776;29;20029;-95
2021/12/08 05:11:41;;;;;;;2.90;1.00;;;4.30;99.90;;;;;;4903630;29;20028;-92
2021/12/08 05:14:20;;;;;;;5.68;0.70;;;4.30;99.90;;;;;;4917802;29;20041;-95
2021/12/08 05:16:50;;;;;;;4.28;0.82;;;4.30;99.90;;;;;;4903129;29;20060;-92
2021/12/08 05:19:18;;;;;;;5.35;1.00;;;4.30;99.90;;;;;;4921224;29;20024;-90
2021/12/08 05:21:52;;;;;;;1.77;0.82;;;4.30;99.90;;;;;;4904648;29;20028;-93
2021/12/08 05:24:32;;;;;;;6.03;1.00;;;4.30;99.90;;;;;;4920560;29;20027;-94
2021/12/08 05:27:18;;;;;;;7.35;1.10;;;4.30;99.90;;;;;;4901767;29;20037;-91
2021/12/08 05:29:54;;;;;;;10.38;1.27;;;4.30;99.90;;;;;;4902646;29;20045;-92
2021/12/08 05:32:21;;;;;;;6.05;1.50;;;4.20;99.90;;;;;;4899905;29;20034;-93
2021/12/08 05:34:47;;;;;;;8.00;1.15;;;4.20;99.90;;;;;;4919149;29;20025;-93
2021/12/08 05:37:15;;;;;;;7.70;0.88;;;4.20;99.90;;;;;;4903067;29;20044;-91
2021/12/08 05:39:42;;;;;;;10.82;1.38;;;4.20;99.90;;;;;;4903173;29;20023;-91
2021/12/08 05:42:20;;;;;;;6.68;0.77;;;4.10;99.90;;;;;;4916002;29;20075;-94
2021/12/08 05:44:45;;;;;;;6.35;0.80;;;4.10;99.90;;;;;;4897673;29;20032;-94
2021/12/08 05:47:17;;;;;;;7.78;0.88;;;4.10;99.90;;;;;;4899697;29;20025;-93
2021/12/08 05:49:43;;;;;;;3.38;1.15;;;4.00;99.90;;;;;;4917695;29;20033;-93
2021/12/08 05:52:09;;;;;;;6.15;1.17;;;4.00;99.90;;;;;;4916979;29;20092;-94
2021/12/08 05:54:38;;;;;;;4.13;0.82;;;4.00;99.90;;;;;;4899888;29;20051;-92
2021/12/08 05:57:11;;;;;;;3.78;0.88;;;4.00;99.90;;;;;;4900580;29;20052;-92
2021/12/08 05:59:38;;;;;;;7.43;0.70;;;4.00;99.90;;;;;;4904223;29;20021;-92
2021/12/08 06:02:11;;;;;;;6.13;0.73;;;4.00;99.90;;;;;;4904619;29;20059;-93
2021/12/08 06:04:38;;;;;;;6.00;0.82;;;3.90;99.90;;;;;;4904879;29;20017;-91
2021/12/08 06:07:05;;;;;;;2.20;0.50;;;3.90;99.90;;;;;;4904310;29;20041;-95
2021/12/08 06:09:31;;;;;;;2.80;0.45;;;3.90;99.90;;;;;;4905315;29;20040;-92
2021/12/08 06:12:00;;;;;;;3.20;0.60;;;3.90;99.90;;;;;;4906036;29;20056;-94
2021/12/08 06:14:32;;;;;;;3.67;0.55;;;3.90;99.90;;;;;;4908082;29;20097;-93
2021/12/08 06:17:06;;;;;;;0.45;0.30;;;3.90;99.90;;;;;;4909013;29;20100;-92
2021/12/08 06:19:33;;;;;;;4.32;0.75;;;3.90;99.90;;;;;;4908858;29;20028;-92
2021/12/08 06:21:59;;;;;;;1.45;0.52;;;3.90;99.90;;;;;;4908509;29;20102;-91
2021/12/08 06:24:25;;;;;;;4.57;0.50;;;3.80;99.90;;;;;;4907076;29;20019;-93
2021/12/08 06:26:52;;;;;;;1.10;0.30;;;3.80;99.90;;;;;;4907781;29;20025;-94
2021/12/08 06:29:19;;;;;;;0.88;0.32;;;3.70;99.90;;;;;;4906344;29;20126;-95
2021/12/08 06:31:52;;;;;;;0.17;0.05;;;3.70;99.90;;;;;;4922183;29;20040;-92
2021/12/08 06:34:18;;;;;;;1.75;0.17;;;3.60;99.90;;;;;;4907716;29;20099;-95
2021/12/08 06:36:54;;;;;;;1.17;0.40;;;3.60;99.90;;;;;;4906917;29;20121;-95
2021/12/08 06:39:55;;;;;;;0.75;0.10;;;3.50;99.90;;;;;;4902664;29;20081;-94
2021/12/08 06:42:22;;;;;;;;;;;3.50;99.90;;;;;;4827419;29;20051;-95
2021/12/08 06:44:50;;;;;;;0.10;0.10;;;3.50;99.90;;;;;;4828839;29;19922;-95
2021/12/08 06:47:22;;;;;;;0.30;0.13;;;3.40;99.90;;;;;;4815850;29;20031;-92
2021/12/08 06:49:54;;;;;;;2.15;0.38;;;3.40;99.90;;;;;;4808389;29;20039;-96
2021/12/08 06:52:27;;;;;;;2.28;0.25;;;3.40;99.90;;;;;;4823687;29;20529;-94
2021/12/08 06:55:20;;;;;;;0.20;0.20;;;3.40;99.90;;;;;;4822250;29;20092;-93
2021/12/08 06:57:56;;;;;;;0.95;0.30;;;3.40;99.90;;;;;;4806633;29;20100;-93
2021/12/08 07:00:36;;;;;;;1.08;0.20;;;3.40;99.90;;;;;;4809526;29;20038;-93
2021/12/08 07:06:10;;;;;;;0.50;0.50;;;3.40;99.90;;;;;;4827889;29;20035;-91
2021/12/08 07:08:47;;;;;;;1.75;0.30;;;3.40;99.90;;;;;;4814887;29;20027;-92
2021/12/08 07:11:15;;;;;;;0.10;0.10;;;3.30;99.90;;;;;;4830349;29;20023;-90
2021/12/08 07:13:41;;;;;;;1.30;0.17;;;3.30;99.90;;;;;;4815290;29;20027;-92
2021/12/08 07:16:22;;;;;;;2.15;0.22;;;3.20;99.90;;;;;;4814876;29;20035;-92
2021/12/08 07:19:02;;;;;;;0.65;0.20;;;3.20;99.90;;;;;;4837859;29;20037;-93
2021/12/08 07:21:33;;;;;;;0.20;0.20;;;3.10;99.90;;;;;;4882987;29;20064;-94
2021/12/08 07:24:12;;;;;;;0.50;0.30;;;3.10;99.90;;;;;;4883199;29;20085;-93
2021/12/08 07:26:39;;;;;;;0.20;0.20;;;3.10;99.90;;;;;;4884090;29;20041;-92
2021/12/08 07:29:12;;;;;;;0.60;0.32;;;3.00;99.90;;;;;;4900759;29;20019;-93
2021/12/08 07:31:42;;;;;;;0.17;0.17;;;3.00;99.90;;;;;;4885018;29;20040;-92
2021/12/08 07:34:15;;;;;;;0.85;0.25;;;3.00;99.90;;;;;;4886726;29;20029;-92
2021/12/08 07:36:44;;;;;;;0.40;0.30;;;3.00;99.90;;;;;;4886163;29;20069;-93
2021/12/08 07:39:21;;;;;;;1.25;0.25;;;3.00;99.90;;;;;;4886322;29;20013;-91
2021/12/08 07:41:52;;;;;;;0.30;0.20;;;3.10;99.90;;;;;;4886033;29;20028;-92
2021/12/08 07:44:23;;;;;;;0.10;0.10;;;3.10;99.90;;;;;;4887899;29;20017;-93
2021/12/08 07:46:53;;;;;;;0.20;0.20;;;3.10;99.90;;;;;;4887270;29;20029;-90
2021/12/08 07:49:25;;;;;;;0.20;0.20;;;3.10;99.90;;;;;;4887977;29;20021;-92
2021/12/08 07:52:08;;;;;;;0.30;0.30;;;3.10;99.90;;;;;;4887844;29;20043;-94
2021/12/08 07:54:36;;;;;;;1.67;0.50;;;3.20;99.90;;;;;;4868121;29;20053;-92
2021/12/08 07:57:08;;;;;;;2.45;0.40;;;3.20;99.90;;;;;;4868775;29;20086;-93
2021/12/08 07:59:39;;;;;;;2.10;0.50;;;3.20;99.90;;;;;;4869692;29;20045;-92
2021/12/08 08:02:09;;;;;;;1.98;0.75;;;3.30;99.90;;;;;;4854609;29;20030;-91
2021/12/08 08:04:39;;;;;;;0.67;0.40;;;3.30;99.90;;;;;;4869476;29;20065;-91
2021/12/08 08:07:07;;;;;;;3.22;0.47;;;3.40;99.90;;;;;;4868409;29;20010;-93
2021/12/08 08:09:39;;;;;;;0.30;0.30;;;3.40;99.90;;;;;;4868605;29;20040;-91
2021/12/08 08:12:08;;;;;;;0.65;0.40;;;3.40;99.90;;;;;;4869157;29;20021;-91
2021/12/08 08:14:39;;;;;;;0.50;0.38;;;3.40;99.90;;;;;;4869196;29;20044;-94
2021/12/08 08:17:06;;;;;;;;;;;3.40;99.90;;;;;;4884892;29;20065;-90
2021/12/08 08:19:32;;;;;;;0.28;0.28;;;3.40;99.90;;;;;;4869004;29;19908;-90
2021/12/08 08:22:09;;;;;;;0.65;0.43;;;3.30;99.90;;;;;;4883678;29;20081;-91
2021/12/08 08:24:36;;;;;;;2.15;0.88;;;3.30;99.90;;;;;;4868234;29;20135;-91
2021/12/08 08:27:07;;;;;;;3.17;0.80;;;3.30;99.90;;;;;;4887650;29;20027;-92
2021/12/08 08:29:38;;;;;;;1.40;0.80;;;3.30;99.90;;;;;;4887155;29;20041;-91
2021/12/08 08:32:19;;;;;;;3.25;0.82;;;3.30;99.90;;;;;;4886531;29;20032;-93
2021/12/08 08:34:47;;;;;;;1.83;0.70;;;3.30;99.90;;;;;;4887798;29;20040;-92
2021/12/08 08:37:15;;;;;;;1.83;0.52;;;3.30;99.90;;;;;;4887101;29;20044;-90
2021/12/08 08:39:46;;;;;;;2.58;0.55;;;3.40;99.90;;;;;;4887499;29;20013;-91
2021/12/08 08:42:21;;;;;;;4.60;0.77;;;3.50;99.90;;;;;;4887257;29;20243;-90
2021/12/08 08:45:03;;;;;;;0.95;0.50;;;3.60;99.90;;;;;;4887170;29;20013;-94
2021/12/08 08:47:33;;;;;;;3.47;1.10;;;3.60;99.90;;;;;;4887653;29;20017;-90
2021/12/08 08:50:22;;;;;;;;;;;3.70;99.90;;;;;;4886592;29;20017;-92
2021/12/08 08:52:56;;;;;;;3.08;1.52;;;3.70;99.90;;;;;;4886968;29;19900;-89
2021/12/08 08:55:30;;;;;;;1.00;0.70;;;3.80;99.90;;;;;;4883694;29;20073;-93
2021/12/08 08:57:56;;;;;;;3.17;1.00;;;3.90;99.90;;;;;;4901428;29;20093;-89
2021/12/08 09:00:32;;;;;;;1.80;0.90;;;3.90;99.90;;;;;;4902986;29;20028;-93
2021/12/08 09:03:02;;;;;;;2.10;0.80;;;3.90;99.90;;;;;;4886048;29;20032;-89
2021/12/08 09:05:33;;;;;;;2.70;1.17;;;3.90;99.90;;;;;;4887079;29;20028;-89
2021/12/08 09:08:01;;;;;;;2.25;0.98;;;3.90;99.90;;;;;;4886784;29;20053;-91
2021/12/08 09:10:29;;;;;;;1.42;1.00;;;4.00;99.90;;;;;;4886880;29;20013;-91
2021/12/08 09:13:02;;;;;;;2.92;0.50;;;3.90;99.90;;;;;;4887235;29;20037;-92
2021/12/08 09:15:34;;;;;;;3.67;0.80;;;3.90;99.90;;;;;;4887079;29;20025;-91
2021/12/08 09:18:14;;;;;;;2.53;0.88;;;3.90;99.90;;;;;;4887065;29;20045;-90
2021/12/08 09:21:16;;;;;;;1.27;0.75;;;3.90;99.90;;;;;;4885816;29;20021;-91
2021/12/08 09:24:17;;;;;;;1.42;0.70;;;3.90;99.90;;;;;;4886620;29;20017;-88
2021/12/08 09:26:49;;;;;;;4.97;0.90;;;3.80;99.90;;;;;;4891835;29;20122;-89
2021/12/08 09:29:44;;;;;;;2.30;0.90;;;3.80;99.90;;;;;;4885838;29;20017;-92
2021/12/08 09:32:19;;;;;;;2.30;0.75;;;3.80;99.90;;;;;;4884945;29;20021;-92
2021/12/08 09:35:04;;;;;;;3.15;0.88;;;3.80;99.90;;;;;;4885469;29;20057;-91
2021/12/08 09:37:41;;;;;;;5.90;1.77;;;3.90;99.90;;;;;;4885208;29;20035;-93
2021/12/08 09:40:29;;;;;;;3.97;0.60;;;4.00;99.90;;;;;;4880530;29;20033;-94
2021/12/08 09:43:01;;;;;;;5.43;1.40;;;4.10;99.90;;;;;;4890999;29;20025;-88
2021/12/08 09:45:55;;;;;;;14.75;2.67;;;4.10;99.90;;;;;;4887671;29;20017;-94
2021/12/08 09:48:26;;;;;;;9.75;2.40;;;4.20;99.90;;;;;;4887140;29;20029;-91
2021/12/08 09:50:54;;;;;;;14.18;4.20;;;4.30;99.90;;;;;;4886054;29;20029;-91
2021/12/08 09:53:20;;;;;;;11.27;3.35;;;4.30;99.90;;;;;;4884227;29;20025;-93
2021/12/08 09:55:48;;;;;;;15.27;5.85;;;4.30;99.90;;;;;;4877715;29;20188;-93
2021/12/08 09:58:15;;;;;;;9.73;3.80;;;4.50;99.90;;;;;;4900324;29;20096;-95
2021/12/08 10:00:43;;;;;;;15.30;3.75;;;4.50;99.90;;;;;;4919793;29;20049;-92
2021/12/08 10:03:12;;;;;;;8.70;3.08;;;4.60;99.90;;;;;;4897407;29;20029;-94
2021/12/08 10:05:41;;;;;;;16.02;3.80;;;4.70;99.90;;;;;;4896848;29;20009;-95
2021/12/08 10:08:07;;;;;;;14.02;4.50;;;4.70;99.90;;;;;;4891046;29;20032;-95
2021/12/08 10:10:36;;;;;;;26.95;8.82;;;4.70;99.90;;;;;;4899358;29;20029;-94
2021/12/08 10:13:02;;;;;;;19.13;5.88;;;4.70;99.90;;;;;;4889024;29;20096;-91
2021/12/08 10:15:29;;;;;;;8.23;3.95;;;4.80;99.90;;;;;;4888948;29;20029;-92
2021/12/08 10:17:56;;;;;;;20.00;6.82;;;4.80;99.90;;;;;;4887403;29;20041;-92
2021/12/08 10:20:41;;;;;;;23.75;8.32;;;4.90;99.90;;;;;;4903877;29;20041;-93
2021/12/08 10:23:18;;;;;;;12.13;5.45;;;4.90;99.90;;;;;;4888714;29;20037;-94
2021/12/08 10:25:57;;;;;;;11.00;3.75;;;4.90;99.90;;;;;;4887177;29;20048;-94
2021/12/08 10:28:36;;;;;;;17.63;6.05;;;5.00;99.90;;;;;;4887937;29;20042;-94
2021/12/08 10:31:13;;;;;;;17.60;5.32;;;5.00;99.90;;;;;;4888735;29;20220;-90
2021/12/08 10:34:04;;;;;;;9.63;4.72;;;5.00;99.90;;;;;;4885316;29;20037;-90
2021/12/08 10:39:17;;;;;;;7.35;2.95;;;5.10;99.90;;;;;;4900132;29;20028;-93
2021/12/08 10:42:04;;;;;;;6.25;1.05;;;5.10;99.90;;;;;;4882529;29;20093;-94
2021/12/08 10:45:07;;;;;;;9.63;2.58;;;5.10;99.90;;;;;;4879535;29;20127;-94
2021/12/08 10:47:38;;;;;;;9.57;3.63;;;5.20;99.90;;;;;;4883756;29;20109;-94
2021/12/08 10:56:09;;;;;;;5.78;2.33;;;5.20;99.90;;;;;;4911507;29;20468;-95
2021/12/08 10:58:43;;;;;;;7.45;2.85;;;5.10;99.90;;;;;;4902445;29;20044;-93
2021/12/08 11:01:11;;;;;;;6.25;2.70;;;5.10;99.90;;;;;;4903119;29;20043;-92
2021/12/08 11:03:39;;;;;;;3.80;2.33;;;5.10;99.90;;;;;;4900634;29;20036;-94
2021/12/08 11:06:06;;;;;;;6.57;3.05;;;5.10;99.90;;;;;;4904308;29;20041;-92
2021/12/08 11:08:40;;;;;;;4.70;2.30;;;5.10;99.90;;;;;;4904506;29;20033;-93
2021/12/08 11:11:22;;;;;;;13.02;2.20;;;5.20;99.90;;;;;;4912418;29;20028;-94
2021/12/08 11:13:50;;;;;;;9.95;2.80;;;5.20;99.90;;;;;;4876654;29;20025;-94
2021/12/08 11:16:18;;;;;;;4.05;1.70;;;5.20;99.90;;;;;;4877174;29;20040;-95
2021/12/08 11:18:47;;;;;;;3.17;1.85;;;5.30;99.90;;;;;;4877471;29;20053;-93
2021/12/08 11:21:25;;;;;;;8.55;2.13;;;5.30;99.90;;;;;;4884052;29;20073;-91
2021/12/08 11:23:53;;;;;;;3.55;1.65;;;5.30;99.90;;;;;;4885926;29;20041;-94
2021/12/08 11:26:33;;;;;;;3.65;1.90;;;5.20;99.90;;;;;;4895870;29;20067;-96
2021/12/08 11:29:00;;;;;;;;;;;5.20;99.90;;;;;;4881646;29;20021;-93
2021/12/08 11:31:59;;;;;;;1.48;1.00;;;5.20;99.90;;;;;;4875833;29;19934;-95
2021/12/08 11:34:38;;;;;;;6.28;2.33;;;5.10;99.90;;;;;;4870715;29;20033;-94
2021/12/08 11:37:06;;;;;;;5.03;2.90;;;5.10;99.90;;;;;;4876106;29;20044;-94
2021/12/08 11:39:38;;;;;;;3.00;1.52;;;5.10;99.90;;;;;;4880168;29;20021;-94
2021/12/08 11:42:06;;;;;;;4.30;2.28;;;5.10;99.90;;;;;;4873780;29;20044;-96
2021/12/08 11:44:36;;;;;;;6.35;1.98;;;5.10;99.90;;;;;;4875019;29;20033;-94
2021/12/08 11:47:15;;;;;;;7.68;1.67;;;5.10;99.90;;;;;;4872931;29;20036;-95
2021/12/08 11:49:50;;;;;;;6.20;2.65;;;5.10;99.90;;;;;;4879688;29;20025;-95
2021/12/08 11:52:23;;;;;;;6.40;2.58;;;5.10;99.90;;;;;;4890270;29;20039;-94
2021/12/08 11:54:59;;;;;;;6.97;2.90;;;5.10;99.90;;;;;;4882256;29;20162;-95
2021/12/08 11:57:33;;;;;;;4.78;1.95;;;5.10;99.90;;;;;;4875171;29;20041;-95
2021/12/08 12:00:23;;;;;;;4.30;2.10;;;5.10;99.90;;;;;;4878396;29;20033;-93
2021/12/08 12:02:56;;;;;;;4.65;1.90;;;5.20;99.90;;;;;;4872221;29;20089;-96
2021/12/08 12:05:29;;;;;;;2.33;1.27;;;5.20;99.90;;;;;;4873768;29;20037;-93
2021/12/08 12:07:56;;;;;;;4.03;1.73;;;5.20;99.90;;;;;;4875536;29;20020;-95
2021/12/08 12:10:37;;;;;;;2.70;1.88;;;5.10;99.90;;;;;;4884066;29;20033;-95
2021/12/08 12:13:03;;;;;;;2.92;2.22;;;5.10;99.90;;;;;;4897377;29;20016;-94
2021/12/08 12:15:30;;;;;;;5.55;2.03;;;5.20;99.90;;;;;;4879607;29;20040;-95
2021/12/08 12:17:56;;;;;;;6.90;2.15;;;5.20;99.90;;;;;;4882121;29;20062;-94
2021/12/08 12:21:13;;;;;;;10.30;2.53;;;5.20;99.90;;;;;;4877214;29;20041;-93
2021/12/08 12:23:45;;;;;;;6.07;2.35;;;5.20;99.90;;;;;;4858943;29;20065;-96
2021/12/08 12:26:36;;;;;;;13.90;4.03;;;5.20;99.90;;;;;;4892296;29;20111;-95
2021/12/08 12:29:39;;;;;;;7.45;3.25;;;5.20;99.90;;;;;;4867972;29;20033;-95
2021/12/08 12:32:19;;;;;;;3.80;2.90;;;5.20;99.90;;;;;;4877455;29;20044;-93
2021/12/08 12:34:52;;;;;;;11.32;3.85;;;5.20;99.90;;;;;;4878126;29;20021;-93
2021/12/08 12:37:33;;;;;;;6.70;3.08;;;5.10;99.90;;;;;;4890136;29;20055;-93
2021/12/08 12:40:08;;;;;;;5.60;2.65;;;5.10;99.90;;;;;;4884866;29;20030;-95
2021/12/08 12:42:54;;;;;;;8.38;3.30;;;5.10;99.90;;;;;;4873486;29;20044;-93
2021/12/08 12:45:25;;;;;;;2.60;1.67;;;5.10;99.90;;;;;;4867112;29;20019;-95
2021/12/08 12:48:21;;;;;;;5.15;2.25;;;5.20;99.90;;;;;;4878445;29;20013;-93
2021/12/08 12:51:14;;;;;;;5.40;2.17;;;5.20;99.90;;;;;;4875393;29;20105;-94
2021/12/08 12:53:53;;;;;;;10.32;3.13;;;5.20;99.90;;;;;;4890531;29;20036;-93
2021/12/08 12:56:37;;;;;;;5.40;1.88;;;5.30;99.90;;;;;;4914624;29;20063;-90
2021/12/08 12:59:20;;;;;;;3.80;2.40;;;5.40;99.90;;;;;;4910837;29;20016;-96
2021/12/08 13:02:24;;;;;;;5.07;1.92;;;5.40;99.90;;;;;;4916126;29;20013;-93
2021/12/08 13:05:11;;;;;;;8.27;2.20;;;5.60;99.90;;;;;;4895759;29;20035;-91
2021/12/08 13:07:58;;;;;;;5.43;2.03;;;5.60;99.90;;;;;;4901170;29;20049;-92
2021/12/08 13:10:40;;;;;;;3.50;2.20;;;5.50;99.90;;;;;;4890173;29;20045;-95
2021/12/08 13:13:15;;;;;;;5.50;1.50;;;5.50;99.90;;;;;;4894196;29;20088;-95
2021/12/08 13:15:45;;;;;;;7.63;1.73;;;5.40;99.90;;;;;;4898280;29;20025;-93
2021/12/08 13:18:23;;;;;;;2.25;1.80;;;5.30;99.90;;;;;;4886908;29;20041;-95
2021/12/08 13:20:59;;;;;;;1.25;1.02;;;5.30;99.90;;;;;;4886525;29;20088;-93
2021/12/08 13:23:29;;;;;;;5.25;1.50;;;5.20;99.90;;;;;;4900165;29;20044;-90
2021/12/08 13:29:03;;;;;;;2.50;1.30;;;5.20;99.90;;;;;;4911669;29;20033;-94
2021/12/08 13:34:02;;;;;;;2.65;1.58;;;5.10;99.90;;;;;;4906397;29;20066;-94
2021/12/08 13:36:38;;;;;;;2.15;1.13;;;5.10;99.90;;;;;;4891546;29;20072;-95
2021/12/08 13:39:10;;;;;;;2.00;0.85;;;5.10;99.90;;;;;;4895304;29;20038;-94
2021/12/08 13:41:38;;;;;;;1.55;0.57;;;5.10;99.90;;;;;;4888579;29;20017;-93
2021/12/08 13:44:36;;;;;;;3.72;0.80;;;5.10;99.90;;;;;;4893940;29;20088;-93
2021/12/08 13:47:38;;;;;;;3.47;0.70;;;5.10;99.90;;;;;;4894523;29;20028;-93
2021/12/08 13:50:25;;;;;;;2.03;1.27;;;5.10;99.90;;;;;;4909810;29;20807;-95
2021/12/08 13:53:30;;;;;;;2.25;1.02;;;5.10;99.90;;;;;;4895653;29;20020;-94
2021/12/08 13:56:00;;;;;;;1.40;0.88;;;5.00;99.90;;;;;;4840679;29;20045;-92
2021/12/08 13:58:37;;;;;;;1.83;0.80;;;4.90;99.90;;;;;;4846044;29;20041;-93
2021/12/08 14:01:24;;;;;;;1.00;0.63;;;4.90;99.90;;;;;;4841153;29;20108;-93
2021/12/08 14:03:50;;;;;;;2.55;1.00;;;4.80;99.90;;;;;;4853971;29;20038;-94
2021/12/08 14:06:21;;;;;;;1.23;0.68;;;4.80;99.90;;;;;;4841092;29;20139;-93
2021/12/08 14:08:49;;;;;;;;;;;4.80;99.90;;;;;;4847664;29;20064;-93
2021/12/08 14:11:18;;;;;;;3.95;1.20;;;4.80;99.90;;;;;;4861040;29;19901;-92
2021/12/08 14:13:55;;;;;;;1.30;0.95;;;4.80;99.90;;;;;;4845856;29;20025;-92
2021/12/08 14:16:24;;;;;;;3.92;2.22;;;4.80;99.90;;;;;;4855929;29;20034;-90
2021/12/08 14:18:56;;;;;;;2.20;1.45;;;4.80;99.90;;;;;;4847424;29;20042;-93
2021/12/08 14:21:36;;;;;;;4.40;2.00;;;4.80;99.90;;;;;;4851545;29;20030;-91
2021/12/08 14:24:10;;;;;;;4.55;1.60;;;4.80;99.90;;;;;;4846389;29;20022;-92
2021/12/08 14:26:38;;;;;;;7.57;3.53;;;4.80;99.90;;;;;;4866974;29;20033;-90
2021/12/08 14:29:10;;;;;;;2.72;1.42;;;4.70;99.90;;;;;;4899783;29;20021;-95
2021/12/08 14:31:45;;;;;;;4.45;2.78;;;4.70;99.90;;;;;;4887410;29;20037;-92
2021/12/08 14:34:21;;;;;;;10.18;4.25;;;4.70;99.90;;;;;;4905877;29;20045;-93
2021/12/08 14:37:01;;;;;;;8.82;4.32;;;4.60;99.90;;;;;;4890902;29;20045;-95
2021/12/08 14:39:35;;;;;;;8.05;2.85;;;4.60;99.90;;;;;;4882474;29;20064;-95
2021/12/08 14:42:10;;;;;;;9.65;5.72;;;4.60;99.90;;;;;;4902800;29;20345;-94
2021/12/08 14:44:41;;;;;;;9.63;4.43;;;4.50;99.90;;;;;;4869545;29;20030;-95
2021/12/08 14:47:13;;;;;;;6.05;2.65;;;4.50;99.90;;;;;;4882467;29;20033;-93
2021/12/08 14:49:43;;;;;;;8.88;3.65;;;4.50;99.90;;;;;;4866779;29;20033;-94
2021/12/08 14:52:14;;;;;;;8.63;4.18;;;4.50;99.90;;;;;;4888417;29;20032;-94
2021/12/08 14:54:52;;;;;;;7.00;3.30;;;4.60;99.90;;;;;;4883416;29;20052;-95
2021/12/08 14:57:28;;;;;;;9.98;4.65;;;4.50;99.90;;;;;;4903750;29;20052;-95
2021/12/08 15:00:01;;;;;;;12.43;3.30;;;4.60;99.90;;;;;;4897075;29;20172;-93